Flight Track Log - Related Links

Times and Time Zones

All times are in EDT time to prevent confusion due to time zone crossing. See the N338TK flight status page for this flight to view local times or setup timezone preferences in your user account.

Time Position Orientation Groundspeed Altitude Reporting Facility
EDT Latitude Longitude Course Direction KTS MPH feet Rate Location/Type
Wed 06:00:50 PM 40.4500 -74.7000 288° West 133 153 1,900  Level New York TRACON
Wed 06:01:50 PM 40.4833 -74.7167 339° North 159 183 2,700 449 Climbing New York TRACON
Wed 06:03:00 PM 40.5365 -74.7167 North  Level FlightAware Approximate
Wed 06:06:00 PM 40.5984 -74.8268 288° West  Level FlightAware Approximate
Wed 06:10:00 PM 40.6416 -75.0911 285° West  Level FlightAware Approximate
Wed 06:11:00 PM 40.6534 -75.1491 286° West  Level FlightAware Approximate
Wed 06:11:05 PM 40.5969 -75.1550 285° West 149 171 6,500  Level New York Center
Wed 06:12:00 PM 40.6656 -75.2070 286° West  Level FlightAware Approximate
Wed 06:12:05 PM 40.6053 -75.2103 281° West 149 171 7,000  Level New York Center
Wed 06:13:00 PM 40.6778 -75.2649 286° West  Level FlightAware Approximate
Wed 06:13:03 PM 40.6094 -75.2625 276° West 144 166 7,500  Level New York Center
Wed 06:14:00 PM 40.6900 -75.3229 286° West  Level FlightAware Approximate
Wed 06:14:03 PM 40.6139 -75.3119 277° West 144 166 8,000  Level New York Center
Wed 06:15:00 PM 40.7022 -75.3808 285° West  Level FlightAware Approximate
Wed 06:15:04 PM 40.6203 -75.3617 280° West 144 166 8,500  Level New York Center
Wed 06:16:05 PM 40.6269 -75.4058 281° West 144 166 9,000 504 Climbing New York Center
Wed 06:17:03 PM 40.6333 -75.4553 280° West 144 166 9,500 458 Climbing New York Center
Wed 06:18:03 PM 40.6375 -75.5022 277° West 139 160 9,900 200 Climbing New York Center
Wed 06:19:03 PM 40.6458 -75.5603 281° West 152 175 9,900  Level New York Center
Wed 06:20:04 PM 40.6533 -75.6292 278° West 173 199 9,900  Level New York Center
Wed 06:21:04 PM 40.6594 -75.6842 278° West 173 199 9,900  Level New York Center
Wed 06:22:04 PM 40.6689 -75.7561 280° West 178 205 9,900  Level New York Center
Wed 06:23:05 PM 40.6744 -75.8222 276° West 178 205 9,900  Level New York Center
Wed 06:24:02 PM 40.6819 -75.8883 279° West 178 205 9,900  Level New York Center
Wed 06:25:03 PM 40.6897 -75.9464 280° West 178 205 9,900  Level New York Center
Wed 06:26:03 PM 40.7119 -76.0111 294° West 178 205 9,900  Level New York Center
Wed 06:27:04 PM 40.7344 -76.0678 298° West 178 205 9,900  Level New York Center
Wed 06:28:04 PM 40.7594 -76.1161 304° West 183 211 9,900  Level New York Center
Wed 06:29:05 PM 40.7858 -76.1758 300° West 183 211 9,900  Level New York Center
Wed 06:30:03 PM 40.8103 -76.2353 299° West 183 211 9,900  Level New York Center
Wed 06:31:03 PM 40.8328 -76.2892 299° West 183 211 9,900  Level New York Center
Wed 06:32:04 PM 40.8553 -76.3406 300° West 183 211 9,900  Level New York Center
Wed 06:33:03 PM 40.8775 -76.4000 296° West 178 205 9,900  Level New York Center
Wed 06:34:03 PM 40.9036 -76.4625 299° West 178 205 9,900  Level New York Center
Wed 06:35:04 PM 40.9281 -76.5194 300° West 178 205 9,900  Level New York Center
Wed 06:36:05 PM 40.9503 -76.5764 297° West 178 205 9,900  Level New York Center
Wed 06:37:02 PM 40.9728 -76.6278 300° West 178 205 9,900  Level New York Center
Wed 06:38:04 PM 40.9969 -76.6875 298° West 183 211 9,900  Level New York Center
Wed 06:39:04 PM 41.0189 -76.7472 296° West 183 211 9,900  Level New York Center
Wed 06:40:02 PM 41.0433 -76.8017 301° West 183 211 9,900  Level New York Center
Wed 06:41:03 PM 41.0672 -76.8617 298° West 183 211 9,900  Level New York Center
Wed 06:42:03 PM 41.0892 -76.9186 297° West 183 211 9,900  Level New York Center
Wed 06:43:04 PM 41.1133 -76.9786 298° West 183 211 9,900  Level New York Center
Wed 06:44:04 PM 41.1394 -77.0361 301° West 183 211 9,900  Level New York Center
Wed 06:45:04 PM 41.1611 -77.0961 296° West 183 211 9,900  Level New York Center
Wed 06:46:05 PM 41.1853 -77.1533 299° West 183 211 9,900  Level New York Center
Wed 06:47:03 PM 41.2094 -77.2081 300° West 183 211 9,900  Level New York Center
Wed 06:48:03 PM 41.2333 -77.2656 299° West 183 211 9,900  Level New York Center
Wed 06:49:04 PM 41.2553 -77.3231 297° West 183 211 9,900  Level New York Center
Wed 06:50:04 PM 41.2847 -77.3894 301° West 183 211 9,900  Level New York Center
Wed 06:51:04 PM 41.3067 -77.4467 297° West 183 211 9,900  Level New York Center
Wed 06:52:05 PM 41.3306 -77.5017 300° West 183 211 9,900 37 Level New York Center
Wed 06:53:48 PM 41.3708 -77.6003 299° West 182 209 10,000 37 Climbing Cleveland Center
Wed 06:54:48 PM 41.3931 -77.6572 297° West 177 204 10,000  Level Cleveland Center
Wed 06:55:48 PM 41.4153 -77.7117 299° West 177 204 10,000 -50 Level Cleveland Center
Wed 06:56:48 PM 41.4397 -77.7689 300° West 177 204 9,900 -50 Descending Cleveland Center
Wed 06:57:48 PM 41.4619 -77.8261 297° West 177 204 9,900  Level Cleveland Center
Wed 06:58:48 PM 41.4842 -77.8806 299° West 177 204 9,900  Level Cleveland Center
Wed 06:59:48 PM 41.5144 -77.9319 308° West 177 204 9,900  Level Cleveland Center
Wed 07:00:48 PM 41.5531 -77.9747 320° Northwest 177 204 9,900  Level Cleveland Center
Wed 07:01:48 PM 41.5811 -78.0208 309° West 184 212 9,900  Level Cleveland Center
Wed 07:02:48 PM 41.6011 -78.0783 295° West 179 206 9,900  Level Cleveland Center
Wed 07:03:48 PM 41.6214 -78.1414 293° West 179 206 9,900  Level Cleveland Center
Wed 07:04:48 PM 41.6372 -78.2047 289° West 179 206 9,900  Level Cleveland Center
Wed 07:05:48 PM 41.6450 -78.2711 279° West 179 206 9,900  Level Cleveland Center
Wed 07:06:48 PM 41.6525 -78.3378 279° West 179 206 9,900  Level Cleveland Center
Wed 07:07:48 PM 41.6619 -78.4042 281° West 179 206 9,900  Level Cleveland Center
Wed 07:08:48 PM 41.6653 -78.4678 274° West 179 206 9,900  Level Cleveland Center
Wed 07:09:48 PM 41.6747 -78.5314 281° West 179 206 9,900  Level Cleveland Center
Wed 07:10:48 PM 41.6883 -78.5922 287° West 179 206 9,900  Level Cleveland Center
Wed 07:11:48 PM 41.7019 -78.6503 287° West 174 200 9,900  Level Cleveland Center
Wed 07:12:48 PM 41.7133 -78.7111 284° West 174 200 9,900  Level Cleveland Center
Wed 07:13:48 PM 41.7247 -78.7719 284° West 174 200 9,900  Level Cleveland Center
Wed 07:14:48 PM 41.7406 -78.8411 287° West 169 194 9,900  Level Cleveland Center
Wed 07:15:48 PM 41.7539 -78.9019 286° West 169 194 9,900  Level Cleveland Center
Wed 07:16:48 PM 41.7694 -78.9656 288° West 175 201 9,900  Level Cleveland Center
Wed 07:17:48 PM 41.7783 -79.0183 283° West 175 201 9,900  Level Cleveland Center
Wed 07:18:48 PM 41.7897 -79.0792 284° West 168 193 9,900  Level Cleveland Center
Wed 07:19:48 PM 41.8050 -79.1431 288° West 161 185 9,900 50 Level Cleveland Center
Wed 07:20:48 PM 41.8161 -79.1958 286° West 161 185 10,000  Climbing Cleveland Center
Wed 07:21:48 PM 41.8272 -79.2622 283° West 169 194 9,900 -250 Descending Cleveland Center
Wed 07:22:48 PM 41.8383 -79.3206 284° West 177 204 9,500 -350 Descending Cleveland Center
Wed 07:23:48 PM 41.8517 -79.3817 286° West 177 204 9,200 -400 Descending Cleveland Center
Wed 07:24:48 PM 41.8628 -79.4483 283° West 177 204 8,700 -550 Descending Cleveland Center
Wed 07:25:48 PM 41.8778 -79.5122 288° West 182 209 8,100 -550 Descending Cleveland Center
Wed 07:26:48 PM 41.8889 -79.5761 283° West 182 209 7,600 -108 Descending Cleveland Center
Wed 07:28:00 PM 41.9051 -79.6484 287° West  Level FlightAware Approximate
Wed 07:35:00 PM 41.9972 -80.0718 285° West  Level FlightAware Approximate
Wed 07:36:00 PM 42.0089 -80.1329 284° West  Level FlightAware Approximate
Wed 07:37:00 PM 42.0205 -80.1940 284° West  Level FlightAware Approximate
Wed 07:38:00 PM 42.0322 -80.2551 284° West  Level FlightAware Approximate
Wed 07:39:00 PM 42.0438 -80.3162 284° West  Level FlightAware Approximate
Wed 07:40:00 PM 42.0554 -80.3774 284° West  Level FlightAware Approximate
Wed 07:41:00 PM 42.0669 -80.4385 284° West  Level FlightAware Approximate
Wed 07:42:00 PM 42.0784 -80.4997 284° West  Level FlightAware Approximate
Wed 07:43:00 PM 42.0899 -80.5610 284° West  Level FlightAware Approximate
Wed 07:44:00 PM 42.1013 -80.6222 284° West  Level FlightAware Approximate
Wed 07:45:00 PM 42.1128 -80.6834 284° West  Level FlightAware Approximate
Wed 07:45:12 PM 42.1100 -80.7203 284° West 171 197 6,000  Level Cleveland Center
Wed 07:46:00 PM 42.1241 -80.7447 284° West  Level FlightAware Approximate
Wed 07:46:12 PM 42.1203 -80.7819 283° West 171 197 6,000  Level Cleveland Center
Wed 07:47:00 PM 42.1355 -80.8060 284° West  Level FlightAware Approximate
Wed 07:47:12 PM 42.1328 -80.8464 285° West 133 153 6,000  Level Cleveland Center
Wed 07:48:00 PM 42.1468 -80.8674 284° West  Level FlightAware Approximate
Wed 07:48:12 PM 42.1428 -80.9136 281° West 138 159 6,000  Level Cleveland Center
Wed 07:49:00 PM 42.1581 -80.9287 284° West  Level FlightAware Approximate
Wed 07:49:12 PM 42.1572 -80.9753 288° West 166 191 5,900  Level Cleveland Center
Wed 07:50:12 PM 42.1675 -81.0369 283° West 171 197 6,000 50 Climbing Cleveland Center
Wed 07:51:12 PM 42.1797 -81.1014 284° West 176 203 6,000  Level Cleveland Center
Wed 07:52:12 PM 42.1897 -81.1661 282° West 176 203 6,000  Level Cleveland Center
Wed 07:53:12 PM 42.2019 -81.2278 285° West 181 208 6,000  Level Cleveland Center
Wed 07:54:11 PM 42.2119 -81.2925 282° West 181 208 6,000 -50 Level Cleveland Center
Wed 07:55:11 PM 42.2242 -81.3542 285° West 181 208 5,900  Descending Cleveland Center
Wed 07:56:11 PM 42.2361 -81.4189 284° West 181 208 6,000 50 Climbing Cleveland Center
Wed 07:57:11 PM 42.2461 -81.4781 283° West 174 200 6,000  Level Cleveland Center
Wed 07:58:12 PM 42.2583 -81.5397 285° West 174 200 6,000  Level Cleveland Center
Wed 07:59:11 PM 42.2703 -81.6044 284° West 174 200 6,000 50 Level Cleveland Center
Wed 08:00:12 PM 42.2800 -81.6664 282° West 174 200 6,100 50 Climbing Cleveland Center
Wed 08:01:12 PM 42.2919 -81.7283 285° West 174 200 6,100  Level Cleveland Center
Wed 08:02:11 PM 42.3017 -81.7875 283° West 174 200 6,100 -50 Level Cleveland Center
Wed 08:03:11 PM 42.3136 -81.8522 284° West 179 206 6,000 -350 Descending Cleveland Center
Wed 08:04:11 PM 42.3253 -81.9200 283° West 187 215 5,400 -550 Descending Cleveland Center
Wed 08:05:11 PM 42.3389 -81.9906 285° West 192 221 4,900 -496 Descending Cleveland Center
Wed 08:06:12 PM 42.3506 -82.0608 283° West 197 227 4,400 -524 Descending Cleveland Center
Wed 08:06:54 PM 42.3644 -82.1175 288° West 198 228 4,000 -267 Descending Cleveland Center
Wed 08:07:42 PM 42.3719 -82.1767 280° West 192 221 4,000  Level Cleveland Center
Wed 08:08:43 PM 42.3836 -82.2444 283° West 183 211 4,000  Level Cleveland Center
Wed 08:09:44 PM 42.3950 -82.3122 283° West 189 217 4,000  Level Cleveland Center
Wed 08:10:45 PM 42.4067 -82.3744 284° West 182 209 4,000  Level Cleveland Center
Wed 08:11:52 PM 42.4200 -82.4453 284° West 169 194 4,000  Level Cleveland Center
Wed 08:12:53 PM 42.4275 -82.5100 279° West 170 196 4,000  Level Cleveland Center
Wed 08:13:54 PM 42.4389 -82.5722 284° West 170 196 4,000  Level Cleveland Center
Wed 08:15:01 PM 42.4522 -82.6458 284° West 173 199 4,000  Level Cleveland Center
Wed 08:16:02 PM 42.4633 -82.7108 283° West 175 201 4,000 -47 Level Cleveland Center
Wed 08:17:09 PM 42.4725 -82.7817 280° West 176 203 3,900 -331 Descending Cleveland Center
Wed 08:18:09 PM 42.4858 -82.8497 285° West 186 214 3,300 -600 Descending Cleveland Center
Wed 08:20:00 PM 42.4989 -82.9672 287° West  Level FlightAware Approximate
Wed 08:27:00 PM 42.5333 -83.1667 270° West  Level FlightAware Approximate

Login

Don't have an account? Register now (free) for customized features, flight alerts, and more!